Terminal Aerodrome Forecast
Issued by NWS Cleveland, OH

Home | Current Version | Previous Version | Text Only | Print | Product List | Glossary On
Versions: 1 2 3 4 5 6 7 8 9 10 11 12
000
FTUS41 KCLE 060540
TAFTOL
TAF
KTOL 060540Z 0606/0706 VRB03KT P6SM BKN250
      TEMPO 0610/0613 5SM BR
     FM061600 23007KT P6SM SCT250
     FM070000 21005KT P6SM SKC=

USA.gov is the U.S. government's official web portal to all federal, state and local government web resources and services.